Time;durP1;ratioP1;P1;durP2;ratioP2;P2;SDS_P1;SDS_P2;PMS_P1;PMS_P2;Temp;Humidity;BMP_temperature;BMP_pressure;BME280_temperature;BME280_humidity;BME280_pressure;Samples;Min_cycle;Max_cycle;Signal;HPM_P1;HPM_P2
2022/05/25 00:01:32;;;;;;;8.02;5.90;;;;;;;;;;5010629;28;20463;-75
2022/05/25 00:03:58;;;;;;;7.93;5.85;;;;;;;;;;5012389;28;20045;-74
2022/05/25 00:06:24;;;;;;;9.35;6.22;;;;;;;;;;5012782;28;20193;-74
2022/05/25 00:08:50;;;;;;;7.70;5.85;;;;;;;;;;5010294;28;20049;-75
2022/05/25 00:11:16;;;;;;;11.05;6.63;;;;;;;;;;5012048;28;20061;-74
2022/05/25 00:13:42;;;;;;;9.05;6.30;;;;;;;;;;5013038;28;20161;-74
2022/05/25 00:16:08;;;;;;;9.15;6.63;;;;;;;;;;5013565;28;20046;-75
2022/05/25 00:18:34;;;;;;;9.82;5.90;;;;;;;;;;5015812;28;20042;-75
2022/05/25 00:21:00;;;;;;;11.05;6.30;;;;;;;;;;5012172;28;20500;-74
2022/05/25 00:23:26;;;;;;;8.85;6.93;;;;;;;;;;5014984;28;20045;-74
2022/05/25 00:25:52;;;;;;;9.88;7.47;;;;;;;;;;5012840;28;20042;-75
2022/05/25 00:28:19;;;;;;;9.25;7.60;;;;;;;;;;5014850;28;20046;-74
2022/05/25 00:30:46;;;;;;;10.50;8.00;;;;;;;;;;5011348;28;20496;-75
2022/05/25 00:33:13;;;;;;;10.68;8.15;;;;;;;;;;5001371;28;20054;-75
2022/05/25 00:35:39;;;;;;;11.63;7.47;;;;;;;;;;5012072;28;20435;-75
2022/05/25 00:38:07;;;;;;;9.93;8.18;;;;;;;;;;5009056;28;20042;-75
2022/05/25 00:40:36;;;;;;;9.82;7.60;;;;;;;;;;5013010;28;20046;-75
2022/05/25 00:43:02;;;;;;;10.98;8.55;;;;;;;;;;5013295;28;20484;-74
2022/05/25 00:45:29;;;;;;;8.65;7.68;;;;;;;;;;5012169;28;20045;-74
2022/05/25 00:47:55;;;;;;;12.60;8.07;;;;;;;;;;5012485;28;20060;-74
2022/05/25 00:50:23;;;;;;;10.30;7.95;;;;;;;;;;5012095;28;20042;-75
2022/05/25 00:52:49;;;;;;;10.48;6.95;;;;;;;;;;5011043;28;20038;-75
2022/05/25 00:55:33;;;;;;;12.18;7.45;;;;;;;;;;5008285;28;20120;-74
2022/05/25 00:58:00;;;;;;;10.68;7.40;;;;;;;;;;5013261;28;20072;-75
2022/05/25 01:00:28;;;;;;;8.23;6.65;;;;;;;;;;5011377;28;20120;-74
2022/05/25 01:02:59;;;;;;;9.65;7.53;;;;;;;;;;5010789;28;20045;-74
2022/05/25 01:05:33;;;;;;;9.63;6.88;;;;;;;;;;5002967;28;20038;-74
2022/05/25 01:08:17;;;;;;;7.65;6.68;;;;;;;;;;5003224;28;20064;-74
2022/05/25 01:11:03;;;;;;;8.52;7.00;;;;;;;;;;5009652;28;20096;-75
2022/05/25 01:13:41;;;;;;;13.38;6.45;;;;;;;;;;4980801;28;20523;-75
2022/05/25 01:16:08;;;;;;;9.63;6.80;;;;;;;;;;5011304;28;20511;-74
2022/05/25 01:18:43;;;;;;;7.70;6.00;;;;;;;;;;5013053;28;20042;-75
2022/05/25 01:21:19;;;;;;;10.15;6.40;;;;;;;;;;5012317;28;20077;-75
2022/05/25 01:24:01;;;;;;;9.65;6.47;;;;;;;;;;5011984;28;20054;-74
2022/05/25 01:26:27;;;;;;;9.82;6.88;;;;;;;;;;5009417;28;20050;-74
2022/05/25 01:29:12;;;;;;;8.32;6.25;;;;;;;;;;5013591;28;20116;-76
2022/05/25 01:31:42;;;;;;;9.07;6.60;;;;;;;;;;5012054;28;20046;-75
2022/05/25 01:34:11;;;;;;;8.05;6.38;;;;;;;;;;5013497;28;20135;-74
2022/05/25 01:36:40;;;;;;;11.30;6.68;;;;;;;;;;5007997;28;20396;-75
2022/05/25 01:39:09;;;;;;;10.57;6.63;;;;;;;;;;5011935;28;20042;-75
2022/05/25 01:41:55;;;;;;;8.65;6.68;;;;;;;;;;5010963;28;20487;-75
2022/05/25 01:44:26;;;;;;;9.13;6.43;;;;;;;;;;5011275;28;20081;-75
2022/05/25 01:46:57;;;;;;;9.77;6.82;;;;;;;;;;5010100;28;20071;-75
2022/05/25 01:49:25;;;;;;;9.63;6.78;;;;;;;;;;5012389;28;20042;-75
2022/05/25 01:51:55;;;;;;;9.73;7.30;;;;;;;;;;5011319;28;20044;-74
2022/05/25 01:54:22;;;;;;;8.73;6.68;;;;;;;;;;5012207;28;20046;-75
2022/05/25 01:56:51;;;;;;;10.68;6.53;;;;;;;;;;5011089;28;20125;-74
2022/05/25 01:59:18;;;;;;;9.52;6.72;;;;;;;;;;5012019;28;20045;-75
2022/05/25 02:04:51;;;;;;;10.15;7.13;;;;;;;;;;5009213;28;20476;-76
2022/05/25 02:07:36;;;;;;;9.75;7.00;;;;;;;;;;5020150;28;20046;-74
2022/05/25 02:10:15;;;;;;;9.93;7.13;;;;;;;;;;5009306;28;20050;-74
2022/05/25 02:12:53;;;;;;;9.35;7.15;;;;;;;;;;5011039;28;20053;-75
2022/05/25 02:15:31;;;;;;;10.75;8.02;;;;;;;;;;5007330;28;20476;-76
2022/05/25 02:17:57;;;;;;;11.80;7.30;;;;;;;;;;5011858;28;20061;-75
2022/05/25 02:20:29;;;;;;;10.95;8.10;;;;;;;;;;5013089;28;20046;-75
2022/05/25 02:22:58;;;;;;;10.55;7.32;;;;;;;;;;5010914;28;20125;-75
2022/05/25 02:25:28;;;;;;;10.75;7.55;;;;;;;;;;5010666;28;20049;-76
2022/05/25 02:27:54;;;;;;;12.02;7.35;;;;;;;;;;5010919;28;20045;-75
2022/05/25 02:30:21;;;;;;;9.60;8.00;;;;;;;;;;5010579;28;20049;-75
2022/05/25 02:32:57;;;;;;;9.00;7.72;;;;;;;;;;5011596;28;20089;-75
2022/05/25 02:35:24;;;;;;;8.95;7.38;;;;;;;;;;5008836;28;20049;-75
2022/05/25 02:37:50;;;;;;;9.52;8.02;;;;;;;;;;5012648;28;20041;-74
2022/05/25 02:40:17;;;;;;;9.32;7.65;;;;;;;;;;5015162;28;20488;-75
2022/05/25 02:42:43;;;;;;;9.90;8.20;;;;;;;;;;5015801;28;20401;-75
2022/05/25 02:45:11;;;;;;;11.43;8.50;;;;;;;;;;5012230;28;20042;-74
2022/05/25 02:47:37;;;;;;;10.88;7.93;;;;;;;;;;5013782;28;20052;-75
2022/05/25 02:50:03;;;;;;;13.68;8.23;;;;;;;;;;5015651;28;20048;-75
2022/05/25 02:52:29;;;;;;;9.93;8.40;;;;;;;;;;5015795;28;20107;-75
2022/05/25 02:54:55;;;;;;;10.82;8.02;;;;;;;;;;5013765;28;20548;-75
2022/05/25 02:57:21;;;;;;;10.32;8.68;;;;;;;;;;5014667;28;20045;-75
2022/05/25 02:59:47;;;;;;;11.13;9.48;;;;;;;;;;5013174;28;20049;-75
2022/05/25 03:02:13;;;;;;;10.88;8.95;;;;;;;;;;5014871;28;20411;-75
2022/05/25 03:04:42;;;;;;;9.75;8.60;;;;;;;;;;5013333;28;20050;-74
2022/05/25 03:07:09;;;;;;;11.80;9.93;;;;;;;;;;5013986;28;20676;-74
2022/05/25 03:09:36;;;;;;;12.73;9.75;;;;;;;;;;4998000;28;20069;-75
2022/05/25 03:12:03;;;;;;;12.60;10.18;;;;;;;;;;4996881;28;20050;-75
2022/05/25 03:14:29;;;;;;;12.63;10.38;;;;;;;;;;5010082;28;20089;-74
2022/05/25 03:16:55;;;;;;;13.88;10.35;;;;;;;;;;5012677;28;20038;-74
2022/05/25 03:19:21;;;;;;;11.90;10.68;;;;;;;;;;5015123;28;20488;-74
2022/05/25 03:21:47;;;;;;;11.25;9.73;;;;;;;;;;5013806;28;20041;-74
2022/05/25 03:24:14;;;;;;;13.30;10.35;;;;;;;;;;5015639;28;20443;-75
2022/05/25 03:26:40;;;;;;;13.68;10.43;;;;;;;;;;5010035;28;20141;-75
2022/05/25 03:29:07;;;;;;;11.88;10.43;;;;;;;;;;5013025;28;20184;-75
2022/05/25 03:31:33;;;;;;;11.65;10.05;;;;;;;;;;5014849;28;20111;-76
2022/05/25 03:33:59;;;;;;;14.07;11.45;;;;;;;;;;5014737;28;20439;-75
2022/05/25 03:36:25;;;;;;;13.13;10.70;;;;;;;;;;5009721;28;20050;-75
2022/05/25 03:38:51;;;;;;;13.48;11.27;;;;;;;;;;5012406;28;20404;-75
2022/05/25 03:41:17;;;;;;;14.05;11.30;;;;;;;;;;5024477;28;20104;-75
2022/05/25 03:43:44;;;;;;;13.82;11.38;;;;;;;;;;4996054;28;20472;-74
2022/05/25 03:46:10;;;;;;;14.50;11.50;;;;;;;;;;5000580;28;20046;-75
2022/05/25 03:48:36;;;;;;;15.95;12.60;;;;;;;;;;5014219;28;20176;-75
2022/05/25 03:51:02;;;;;;;14.18;12.32;;;;;;;;;;5015162;28;20038;-75
2022/05/25 03:53:28;;;;;;;14.48;12.98;;;;;;;;;;5013898;28;20053;-75
2022/05/25 03:55:54;;;;;;;15.07;12.88;;;;;;;;;;5010805;28;20128;-75
2022/05/25 03:58:20;;;;;;;18.42;13.10;;;;;;;;;;5014505;28;20393;-75
2022/05/25 04:00:46;;;;;;;13.70;11.20;;;;;;;;;;5001708;28;20057;-76
2022/05/25 04:03:14;;;;;;;16.17;12.65;;;;;;;;;;4995461;28;20149;-75
2022/05/25 04:05:40;;;;;;;16.08;13.13;;;;;;;;;;5001503;28;20273;-75
2022/05/25 04:08:06;;;;;;;15.07;12.45;;;;;;;;;;5014405;28;20389;-75
2022/05/25 04:10:32;;;;;;;16.27;13.18;;;;;;;;;;5012240;28;20058;-76
2022/05/25 04:12:58;;;;;;;15.57;12.95;;;;;;;;;;5016787;28;20062;-74
2022/05/25 04:15:26;;;;;;;15.73;13.15;;;;;;;;;;5026752;28;20046;-74
2022/05/25 04:17:52;;;;;;;15.05;12.40;;;;;;;;;;5012832;28;20126;-75
2022/05/25 04:20:19;;;;;;;15.25;13.27;;;;;;;;;;5013868;28;20049;-75
2022/05/25 04:22:45;;;;;;;15.07;13.27;;;;;;;;;;5013483;28;20481;-75
2022/05/25 04:25:13;;;;;;;13.55;12.15;;;;;;;;;;5010617;28;20057;-75
2022/05/25 04:27:40;;;;;;;15.15;12.05;;;;;;;;;;5003563;28;20476;-75
2022/05/25 04:30:07;;;;;;;14.55;11.88;;;;;;;;;;4999204;28;20072;-74
2022/05/25 04:32:33;;;;;;;12.07;10.73;;;;;;;;;;5014185;28;20037;-74
2022/05/25 04:34:59;;;;;;;13.73;11.90;;;;;;;;;;5010622;28;20533;-74
2022/05/25 04:40:11;;;;;;;13.80;10.10;;;;;;;;;;5018396;28;20411;-74
2022/05/25 04:42:38;;;;;;;13.98;11.93;;;;;;;;;;5013416;28;20117;-75
2022/05/25 04:45:04;;;;;;;15.95;11.20;;;;;;;;;;5013209;28;20049;-74
2022/05/25 04:47:31;;;;;;;13.13;10.70;;;;;;;;;;5009421;28;20468;-74
2022/05/25 04:49:58;;;;;;;13.48;12.07;;;;;;;;;;5013446;28;20054;-74
2022/05/25 04:52:24;;;;;;;14.00;11.07;;;;;;;;;;5012185;28;20057;-75
2022/05/25 04:54:50;;;;;;;13.18;10.77;;;;;;;;;;5013809;28;20053;-74
2022/05/25 04:57:19;;;;;;;14.27;11.95;;;;;;;;;;5012136;28;20435;-74
2022/05/25 04:59:45;;;;;;;16.17;12.63;;;;;;;;;;5011455;28;20100;-74
2022/05/25 05:02:11;;;;;;;16.95;13.27;;;;;;;;;;5013840;28;20058;-75
2022/05/25 05:04:37;;;;;;;12.52;11.15;;;;;;;;;;5012608;28;20069;-75
2022/05/25 05:07:04;;;;;;;18.75;12.93;;;;;;;;;;5010723;28;20157;-75
2022/05/25 05:09:36;;;;;;;15.25;11.95;;;;;;;;;;5014078;28;20042;-75
2022/05/25 05:12:03;;;;;;;13.35;11.98;;;;;;;;;;5001271;28;20131;-75
2022/05/25 05:14:29;;;;;;;14.13;12.25;;;;;;;;;;5005283;28;20088;-74
2022/05/25 05:16:58;;;;;;;14.50;12.80;;;;;;;;;;5011687;28;20085;-74
2022/05/25 05:19:25;;;;;;;11.80;10.27;;;;;;;;;;5012374;28;20057;-75
2022/05/25 05:21:54;;;;;;;14.13;12.20;;;;;;;;;;4994543;28;20137;-74
2022/05/25 05:24:20;;;;;;;15.40;12.38;;;;;;;;;;5009765;28;20081;-75
2022/05/25 05:26:46;;;;;;;14.80;12.07;;;;;;;;;;5013774;28;20081;-75
2022/05/25 05:29:12;;;;;;;14.10;11.60;;;;;;;;;;5010256;28;20080;-74
2022/05/25 05:31:38;;;;;;;13.10;10.35;;;;;;;;;;5012140;28;20514;-74
2022/05/25 05:34:04;;;;;;;11.75;10.45;;;;;;;;;;4993855;28;20050;-75
2022/05/25 05:36:34;;;;;;;12.60;9.98;;;;;;;;;;5007028;28;20053;-75
2022/05/25 05:39:08;;;;;;;12.50;9.32;;;;;;;;;;5013052;28;20052;-74
2022/05/25 05:41:39;;;;;;;12.23;9.65;;;;;;;;;;5009841;28;20053;-75
2022/05/25 05:44:07;;;;;;;14.10;9.30;;;;;;;;;;5004674;28;20046;-74
2022/05/25 05:46:34;;;;;;;10.40;8.77;;;;;;;;;;5011059;28;20404;-75
2022/05/25 05:49:00;;;;;;;10.65;8.88;;;;;;;;;;5012549;28;20053;-75
2022/05/25 05:51:26;;;;;;;11.07;8.10;;;;;;;;;;5012903;28;20041;-75
2022/05/25 05:53:52;;;;;;;11.93;7.97;;;;;;;;;;5007166;28;20104;-75
2022/05/25 05:56:19;;;;;;;12.57;8.40;;;;;;;;;;5012182;28;20562;-76
2022/05/25 05:58:45;;;;;;;9.60;7.85;;;;;;;;;;5012810;28;20038;-76
2022/05/25 06:01:11;;;;;;;9.68;7.30;;;;;;;;;;5012884;28;20096;-75
2022/05/25 06:03:37;;;;;;;9.32;6.85;;;;;;;;;;5010151;28;20121;-75
2022/05/25 06:06:03;;;;;;;11.27;7.35;;;;;;;;;;5005890;28;20120;-75
2022/05/25 06:08:30;;;;;;;10.20;7.70;;;;;;;;;;4996737;28;20092;-75
2022/05/25 06:10:56;;;;;;;9.63;7.20;;;;;;;;;;5012906;28;20062;-75
2022/05/25 06:13:22;;;;;;;9.05;6.30;;;;;;;;;;5011075;28;20041;-75
2022/05/25 06:21:20;;;;;;;10.88;6.40;;;;;;;;;;5011512;28;20057;-75
2022/05/25 06:23:46;;;;;;;11.07;6.50;;;;;;;;;;5016611;28;20045;-75
2022/05/25 06:26:14;;;;;;;8.95;5.75;;;;;;;;;;5005283;28;20038;-74
2022/05/25 06:28:40;;;;;;;9.55;6.50;;;;;;;;;;4990279;28;20456;-74
2022/05/25 06:31:06;;;;;;;9.77;6.40;;;;;;;;;;5005236;28;20049;-74
2022/05/25 06:33:33;;;;;;;8.73;6.43;;;;;;;;;;4999538;28;20484;-74
2022/05/25 06:36:18;;;;;;;9.77;6.40;;;;;;;;;;5004225;28;20100;-74
2022/05/25 06:38:44;;;;;;;8.70;6.50;;;;;;;;;;4994473;28;20489;-74
2022/05/25 06:41:10;;;;;;;9.52;6.68;;;;;;;;;;4991896;28;20046;-74
2022/05/25 06:43:36;;;;;;;10.80;7.03;;;;;;;;;;4996929;28;20044;-74
2022/05/25 06:46:02;;;;;;;9.98;6.88;;;;;;;;;;5012414;28;20049;-74
2022/05/25 06:48:29;;;;;;;8.82;6.80;;;;;;;;;;5012313;28;20054;-74
2022/05/25 06:50:55;;;;;;;8.68;6.85;;;;;;;;;;5010947;28;20475;-74
2022/05/25 06:53:21;;;;;;;11.95;7.38;;;;;;;;;;5011167;28;20046;-74
2022/05/25 06:55:47;;;;;;;10.40;6.80;;;;;;;;;;5011347;28;20199;-74
2022/05/25 06:58:13;;;;;;;10.75;7.90;;;;;;;;;;5012035;28;20046;-74
2022/05/25 07:00:39;;;;;;;13.38;7.97;;;;;;;;;;5012533;28;20050;-75
2022/05/25 07:03:06;;;;;;;11.77;7.00;;;;;;;;;;5008409;28;20108;-74
2022/05/25 07:05:33;;;;;;;10.43;7.47;;;;;;;;;;5012517;28;20050;-74
2022/05/25 07:08:00;;;;;;;11.60;7.13;;;;;;;;;;5012111;28;20096;-74
2022/05/25 07:10:26;;;;;;;9.85;7.15;;;;;;;;;;5012345;28;20058;-75
2022/05/25 07:12:52;;;;;;;11.13;7.18;;;;;;;;;;5012105;28;20492;-75
2022/05/25 07:15:18;;;;;;;12.48;6.90;;;;;;;;;;5013506;28;20042;-74
2022/05/25 07:17:47;;;;;;;10.55;6.88;;;;;;;;;;5017198;28;20053;-74
2022/05/25 07:20:13;;;;;;;13.10;6.82;;;;;;;;;;5011784;28;20444;-74
2022/05/25 07:22:40;;;;;;;8.45;6.00;;;;;;;;;;5010758;28;20491;-73
2022/05/25 07:25:06;;;;;;;11.77;7.10;;;;;;;;;;5015928;28;20073;-74
2022/05/25 07:27:32;;;;;;;9.50;6.75;;;;;;;;;;5015922;28;20069;-75
2022/05/25 07:29:59;;;;;;;10.73;7.30;;;;;;;;;;5015191;28;20185;-74
2022/05/25 07:32:25;;;;;;;10.00;6.47;;;;;;;;;;5013781;28;20045;-74
2022/05/25 07:34:55;;;;;;;10.52;6.63;;;;;;;;;;5015782;28;20107;-74
2022/05/25 07:37:22;;;;;;;9.23;6.22;;;;;;;;;;5015888;28;20046;-75
2022/05/25 07:39:52;;;;;;;7.57;5.20;;;;;;;;;;5013491;28;20121;-74
2022/05/25 07:42:19;;;;;;;8.98;5.90;;;;;;;;;;5014216;28;20050;-75
2022/05/25 07:44:48;;;;;;;8.95;5.82;;;;;;;;;;5015005;28;20495;-74
2022/05/25 07:47:14;;;;;;;8.80;5.13;;;;;;;;;;5003237;28;20064;-74
2022/05/25 07:49:41;;;;;;;8.10;5.07;;;;;;;;;;5013404;28;20046;-74
2022/05/25 07:52:07;;;;;;;9.95;5.28;;;;;;;;;;5012046;28;20054;-74
2022/05/25 07:54:33;;;;;;;9.80;5.55;;;;;;;;;;5014385;28;20050;-76
2022/05/25 07:56:59;;;;;;;8.32;5.60;;;;;;;;;;5014697;28;20041;-74
2022/05/25 07:59:26;;;;;;;9.20;4.85;;;;;;;;;;5007918;28;20510;-74
2022/05/25 08:07:27;;;;;;;7.88;4.15;;;;;;;;;;5012481;28;20072;-73
2022/05/25 08:09:56;;;;;;;8.50;4.40;;;;;;;;;;5007955;28;20125;-74
2022/05/25 08:12:24;;;;;;;8.02;4.13;;;;;;;;;;5011888;28;20060;-74
2022/05/25 08:14:50;;;;;;;7.80;4.55;;;;;;;;;;5017523;28;20519;-74
2022/05/25 08:17:16;;;;;;;7.57;4.63;;;;;;;;;;5012997;28;20047;-74
2022/05/25 08:19:42;;;;;;;8.73;3.97;;;;;;;;;;5008152;28;20412;-74
2022/05/25 08:22:09;;;;;;;7.72;4.57;;;;;;;;;;5012382;28;20048;-74
2022/05/25 08:24:35;;;;;;;10.45;4.65;;;;;;;;;;5012607;28;20345;-74
2022/05/25 08:27:01;;;;;;;8.75;4.68;;;;;;;;;;5013847;28;20053;-74
2022/05/25 08:29:27;;;;;;;8.60;4.60;;;;;;;;;;5014169;28;20101;-75
2022/05/25 08:31:55;;;;;;;7.25;4.10;;;;;;;;;;5013409;28;20085;-74
2022/05/25 08:34:25;;;;;;;8.60;4.05;;;;;;;;;;5014707;28;20449;-74
2022/05/25 08:36:51;;;;;;;6.93;4.00;;;;;;;;;;5014045;28;20069;-74
2022/05/25 08:39:17;;;;;;;8.75;4.07;;;;;;;;;;5015110;28;20046;-74
2022/05/25 08:41:44;;;;;;;8.43;3.38;;;;;;;;;;5013453;28;20109;-76
2022/05/25 08:44:10;;;;;;;6.72;3.42;;;;;;;;;;4994600;28;20038;-75
2022/05/25 08:46:37;;;;;;;9.07;3.70;;;;;;;;;;4999202;28;20069;-74
2022/05/25 08:49:04;;;;;;;8.10;3.58;;;;;;;;;;5014616;28;20403;-75
2022/05/25 08:51:31;;;;;;;7.20;3.33;;;;;;;;;;5014940;28;20054;-75
2022/05/25 08:53:58;;;;;;;6.97;3.38;;;;;;;;;;5015084;28;20042;-75
2022/05/25 08:56:36;;;;;;;7.50;3.20;;;;;;;;;;5014136;28;20433;-75
2022/05/25 08:59:12;;;;;;;7.10;3.33;;;;;;;;;;5014773;28;20050;-74
2022/05/25 09:01:43;;;;;;;8.20;3.17;;;;;;;;;;5014904;28;20049;-74
2022/05/25 09:04:13;;;;;;;6.60;2.95;;;;;;;;;;5014653;28;20050;-74
2022/05/25 09:06:56;;;;;;;5.32;2.83;;;;;;;;;;5013237;28;20496;-75
2022/05/25 09:09:30;;;;;;;6.40;3.10;;;;;;;;;;5013770;28;20550;-75
2022/05/25 09:12:04;;;;;;;6.43;3.03;;;;;;;;;;5013592;28;20062;-75
2022/05/25 09:14:48;;;;;;;6.88;3.08;;;;;;;;;;5013048;28;20176;-75
2022/05/25 09:17:19;;;;;;;5.60;2.97;;;;;;;;;;5013207;28;20416;-74
2022/05/25 09:19:45;;;;;;;;;;;;;;;;;;4995316;28;20050;-75
2022/05/25 09:22:13;;;;;;;9.15;2.90;;;;;;;;;;5000751;28;19921;-74
2022/05/25 09:24:39;;;;;;;7.13;3.17;;;;;;;;;;5013369;28;20057;-74
2022/05/25 09:27:07;;;;;;;5.03;2.65;;;;;;;;;;5011493;28;20042;-75
2022/05/25 09:29:32;;;;;;;6.22;3.10;;;;;;;;;;5013691;28;20046;-74
2022/05/25 09:32:28;;;;;;;6.20;3.10;;;;;;;;;;5010153;28;20048;-73
2022/05/25 09:35:00;;;;;;;6.13;2.47;;;;;;;;;;4997817;28;20053;-74
2022/05/25 09:37:34;;;;;;;6.55;2.67;;;;;;;;;;5004825;28;20152;-74
2022/05/25 09:40:02;;;;;;;7.32;3.10;;;;;;;;;;5006334;28;20053;-74
2022/05/25 09:42:32;;;;;;;6.80;3.10;;;;;;;;;;5015554;28;20493;-75
2022/05/25 09:45:00;;;;;;;7.35;3.47;;;;;;;;;;5006216;28;20075;-74
2022/05/25 09:47:31;;;;;;;5.90;3.00;;;;;;;;;;5012897;28;20050;-73
2022/05/25 09:49:58;;;;;;;6.63;2.70;;;;;;;;;;5013588;28;20111;-73
2022/05/25 09:52:36;;;;;;;5.40;2.53;;;;;;;;;;5009332;28;20116;-73
2022/05/25 09:55:04;;;;;;;5.95;3.30;;;;;;;;;;5008050;28;20034;-73
2022/05/25 09:57:34;;;;;;;6.38;3.03;;;;;;;;;;5012558;28;20034;-74
2022/05/25 10:00:21;;;;;;;5.15;2.40;;;;;;;;;;5012695;28;20566;-73
2022/05/25 10:02:50;;;;;;;5.50;2.85;;;;;;;;;;4993720;28;20046;-74
2022/05/25 10:05:24;;;;;;;5.32;2.65;;;;;;;;;;4993399;28;20552;-73
2022/05/25 10:07:50;;;;;;;5.10;2.28;;;;;;;;;;5010570;28;20088;-75
2022/05/25 10:10:23;;;;;;;5.20;2.10;;;;;;;;;;5011961;28;20065;-75
2022/05/25 10:12:58;;;;;;;5.18;2.20;;;;;;;;;;5012307;28;20049;-73
2022/05/25 10:15:35;;;;;;;5.90;2.25;;;;;;;;;;5012733;28;20053;-74
2022/05/25 10:18:02;;;;;;;6.20;2.42;;;;;;;;;;5012498;28;20095;-73
2022/05/25 10:20:30;;;;;;;6.40;2.78;;;;;;;;;;5010887;28;20420;-74
2022/05/25 10:23:12;;;;;;;5.32;3.20;;;;;;;;;;5003064;28;20050;-73
2022/05/25 10:25:43;;;;;;;6.38;3.10;;;;;;;;;;4993751;28;20377;-75
2022/05/25 10:28:27;;;;;;;6.72;3.30;;;;;;;;;;5003964;28;20120;-74
2022/05/25 10:36:48;;;;;;;5.05;2.78;;;;;;;;;;5008325;28;20452;-74
2022/05/25 10:39:17;;;;;;;7.65;2.85;;;;;;;;;;5013161;28;20061;-75
2022/05/25 10:41:45;;;;;;;6.43;2.78;;;;;;;;;;5012145;28;20440;-75
2022/05/25 10:44:21;;;;;;;6.78;3.13;;;;;;;;;;5013075;28;20050;-75
2022/05/25 10:46:54;;;;;;;7.10;3.00;;;;;;;;;;5025136;28;20060;-75
2022/05/25 10:49:29;;;;;;;6.63;2.97;;;;;;;;;;5027539;28;20104;-75
2022/05/25 10:52:01;;;;;;;5.82;2.45;;;;;;;;;;5010458;28;20042;-74
2022/05/25 10:57:27;;;;;;;4.85;2.30;;;;;;;;;;5000646;28;20441;-75
2022/05/25 10:59:56;;;;;;;5.60;2.10;;;;;;;;;;5011356;28;20420;-75
2022/05/25 11:02:34;;;;;;;5.00;2.25;;;;;;;;;;5011783;28;20046;-74
2022/05/25 11:05:03;;;;;;;4.90;2.08;;;;;;;;;;5010382;28;20053;-74
2022/05/25 11:07:34;;;;;;;6.63;2.58;;;;;;;;;;5008535;28;20054;-74
2022/05/25 11:10:09;;;;;;;5.57;2.85;;;;;;;;;;5009600;28;20054;-75
2022/05/25 11:12:44;;;;;;;6.28;2.60;;;;;;;;;;5010922;28;20061;-74
2022/05/25 11:15:23;;;;;;;5.60;2.17;;;;;;;;;;5009273;28;20504;-74
2022/05/25 11:17:55;;;;;;;7.47;2.13;;;;;;;;;;5009225;28;20052;-74
2022/05/25 11:20:25;;;;;;;4.82;2.13;;;;;;;;;;5014941;28;20038;-73
2022/05/25 11:23:04;;;;;;;6.85;2.30;;;;;;;;;;5010199;28;20042;-74
2022/05/25 11:25:33;;;;;;;10.18;2.78;;;;;;;;;;5010208;28;20081;-75
2022/05/25 11:28:14;;;;;;;5.63;2.60;;;;;;;;;;5009104;28;20976;-74
2022/05/25 11:30:45;;;;;;;8.15;2.88;;;;;;;;;;5007424;28;20046;-75
2022/05/25 11:33:27;;;;;;;5.85;2.42;;;;;;;;;;5014437;28;20476;-74
2022/05/25 11:36:08;;;;;;;7.65;2.75;;;;;;;;;;5007188;28;20048;-74
2022/05/25 11:38:39;;;;;;;7.50;2.85;;;;;;;;;;5009251;28;20053;-73
2022/05/25 11:41:11;;;;;;;6.35;2.78;;;;;;;;;;5006313;28;20053;-74
2022/05/25 11:43:37;;;;;;;6.90;2.60;;;;;;;;;;5010928;28;20128;-74
2022/05/25 11:46:12;;;;;;;8.27;3.17;;;;;;;;;;5007072;28;20504;-74
2022/05/25 11:49:03;;;;;;;9.63;2.80;;;;;;;;;;5005959;28;20050;-74
2022/05/25 11:51:38;;;;;;;6.05;2.72;;;;;;;;;;5010408;28;20419;-74
2022/05/25 11:54:17;;;;;;;7.80;2.67;;;;;;;;;;5011782;28;20500;-76
2022/05/25 11:56:57;;;;;;;7.68;2.78;;;;;;;;;;5009181;28;20069;-74
2022/05/25 11:59:28;;;;;;;6.65;2.60;;;;;;;;;;5003173;28;20066;-75
2022/05/25 12:02:01;;;;;;;6.68;3.28;;;;;;;;;;5011246;28;20405;-74
2022/05/25 12:04:40;;;;;;;6.80;2.90;;;;;;;;;;5010161;28;20081;-74
2022/05/25 12:07:24;;;;;;;7.55;3.42;;;;;;;;;;5009961;28;20602;-75
2022/05/25 12:09:50;;;;;;;6.63;3.45;;;;;;;;;;5007798;28;20042;-75
2022/05/25 12:12:23;;;;;;;6.65;3.88;;;;;;;;;;5010493;28;20038;-75
2022/05/25 12:14:54;;;;;;;6.10;3.40;;;;;;;;;;4997506;28;20719;-75
2022/05/25 12:17:29;;;;;;;9.35;3.40;;;;;;;;;;5011897;28;20153;-74
2022/05/25 12:19:56;;;;;;;5.85;3.17;;;;;;;;;;5010576;28;20038;-74
2022/05/25 12:22:24;;;;;;;7.28;3.22;;;;;;;;;;5010057;28;20042;-74
2022/05/25 12:24:53;;;;;;;7.60;3.55;;;;;;;;;;5014877;28;20037;-74
2022/05/25 12:27:21;;;;;;;5.97;3.70;;;;;;;;;;5018766;28;20091;-75
2022/05/25 12:29:49;;;;;;;6.75;3.90;;;;;;;;;;5021206;28;20050;-74
2022/05/25 12:32:15;;;;;;;8.95;4.00;;;;;;;;;;5010399;28;20049;-74
2022/05/25 12:34:41;;;;;;;9.70;4.70;;;;;;;;;;5013223;28;20057;-75
2022/05/25 12:37:08;;;;;;;8.57;5.70;;;;;;;;;;5011140;28;20038;-74
2022/05/25 12:39:43;;;;;;;8.77;6.85;;;;;;;;;;5012027;28;20061;-74
2022/05/25 12:42:25;;;;;;;11.05;7.18;;;;;;;;;;5008386;28;20038;-74
2022/05/25 12:50:39;;;;;;;9.02;6.38;;;;;;;;;;5014963;28;20132;-73
2022/05/25 12:53:20;;;;;;;8.82;6.00;;;;;;;;;;5012772;28;20121;-74
2022/05/25 12:55:54;;;;;;;10.73;6.38;;;;;;;;;;4993581;28;20044;-74
2022/05/25 12:58:39;;;;;;;8.27;5.95;;;;;;;;;;4993041;28;20122;-75
2022/05/25 13:01:28;;;;;;;9.27;5.30;;;;;;;;;;5013325;28;20080;-75
2022/05/25 13:03:54;;;;;;;8.60;5.40;;;;;;;;;;5001632;28;20046;-75
2022/05/25 13:06:23;;;;;;;15.02;5.45;;;;;;;;;;5012714;28;20052;-76
2022/05/25 13:08:52;;;;;;;8.05;4.88;;;;;;;;;;5012106;28;20123;-73
2022/05/25 13:11:37;;;;;;;7.88;4.97;;;;;;;;;;5014398;28;20503;-75
2022/05/25 13:14:22;;;;;;;7.88;4.32;;;;;;;;;;5001108;28;20062;-74
2022/05/25 13:16:48;;;;;;;10.43;4.68;;;;;;;;;;5013981;28;20042;-75
2022/05/25 13:19:15;;;;;;;9.85;4.20;;;;;;;;;;5016111;28;20046;-74
2022/05/25 13:21:42;;;;;;;7.55;3.70;;;;;;;;;;5015103;28;20121;-74
2022/05/25 13:24:14;;;;;;;6.65;3.00;;;;;;;;;;5013726;28;20045;-74
2022/05/25 13:26:47;;;;;;;7.45;2.72;;;;;;;;;;5016855;28;20046;-74
2022/05/25 13:29:22;;;;;;;8.00;2.60;;;;;;;;;;5015595;28;20407;-75
2022/05/25 13:31:57;;;;;;;5.75;2.20;;;;;;;;;;5007387;28;20054;-74
2022/05/25 13:34:23;;;;;;;6.82;2.53;;;;;;;;;;5016292;28;20046;-73
2022/05/25 13:36:51;;;;;;;7.18;2.65;;;;;;;;;;5003691;28;20038;-74
2022/05/25 13:39:21;;;;;;;6.50;2.50;;;;;;;;;;4996974;28;20073;-73
2022/05/25 13:41:55;;;;;;;9.90;1.60;;;;;;;;;;5012683;28;20074;-74
2022/05/25 13:44:26;;;;;;;8.05;1.85;;;;;;;;;;5013743;28;20074;-75
2022/05/25 13:46:53;;;;;;;8.30;1.73;;;;;;;;;;5012849;28;20058;-75
2022/05/25 13:49:23;;;;;;;7.40;1.40;;;;;;;;;;5025042;28;20046;-74
2022/05/25 13:51:49;;;;;;;7.18;1.42;;;;;;;;;;5014515;28;20068;-75
2022/05/25 13:54:25;;;;;;;5.22;1.33;;;;;;;;;;5012813;28;20038;-74
2022/05/25 13:56:52;;;;;;;7.30;1.50;;;;;;;;;;5012918;28;20060;-74
2022/05/25 13:59:19;;;;;;;7.57;1.23;;;;;;;;;;5013702;28;20045;-74
2022/05/25 14:01:46;;;;;;;7.30;1.30;;;;;;;;;;5007833;28;20130;-74
2022/05/25 14:04:32;;;;;;;8.45;1.58;;;;;;;;;;5011843;28;20050;-74
2022/05/25 14:06:58;;;;;;;5.13;1.42;;;;;;;;;;5010466;28;20104;-75
2022/05/25 14:12:15;;;;;;;6.53;1.15;;;;;;;;;;5012345;28;20057;-74
2022/05/25 14:14:50;;;;;;;4.75;0.98;;;;;;;;;;5012065;28;20500;-75
2022/05/25 14:17:21;;;;;;;5.75;1.10;;;;;;;;;;5012006;28;20496;-75
2022/05/25 14:19:51;;;;;;;4.65;0.90;;;;;;;;;;5010427;28;20057;-76
2022/05/25 14:22:18;;;;;;;5.63;0.93;;;;;;;;;;5006650;28;20046;-75
2022/05/25 14:24:46;;;;;;;5.53;1.20;;;;;;;;;;5008353;28;20038;-75
2022/05/25 14:27:19;;;;;;;4.63;1.00;;;;;;;;;;5011925;28;20038;-75
2022/05/25 14:29:45;;;;;;;7.20;1.10;;;;;;;;;;5008681;28;20042;-74
2022/05/25 14:32:11;;;;;;;5.30;1.15;;;;;;;;;;5012316;28;20046;-74
2022/05/25 14:34:39;;;;;;;5.95;1.27;;;;;;;;;;5017638;28;20099;-75
2022/05/25 14:37:05;;;;;;;5.72;0.90;;;;;;;;;;5015242;28;20054;-77
2022/05/25 14:39:34;;;;;;;6.20;1.25;;;;;;;;;;5017503;28;20049;-74
2022/05/25 14:42:12;;;;;;;5.13;1.00;;;;;;;;;;5016661;28;20056;-76
2022/05/25 14:44:41;;;;;;;4.50;0.95;;;;;;;;;;5013385;28;20138;-75
2022/05/25 14:47:39;;;;;;;5.63;1.15;;;;;;;;;;5015254;28;20068;-74
2022/05/25 14:50:05;;;;;;;6.15;0.90;;;;;;;;;;4984102;28;20128;-75
2022/05/25 14:52:31;;;;;;;4.97;0.90;;;;;;;;;;5016069;28;20155;-75
2022/05/25 14:55:02;;;;;;;5.05;0.90;;;;;;;;;;5016709;28;20191;-75
2022/05/25 14:57:28;;;;;;;4.15;0.75;;;;;;;;;;5015394;28;20041;-76
2022/05/25 14:59:54;;;;;;;4.03;1.05;;;;;;;;;;5015768;28;20042;-76
2022/05/25 15:02:34;;;;;;;5.40;0.93;;;;;;;;;;5015466;28;20049;-76
2022/05/25 15:05:19;;;;;;;7.20;0.95;;;;;;;;;;4996618;28;20087;-75
2022/05/25 15:07:50;;;;;;;6.50;1.00;;;;;;;;;;4999268;28;20069;-74
2022/05/25 15:10:16;;;;;;;;;;;;;;;;;;5016360;28;20184;-75
2022/05/25 15:12:46;;;;;;;3.67;0.90;;;;;;;;;;5014059;28;19922;-74
2022/05/25 15:18:33;;;;;;;6.97;1.20;;;;;;;;;;5008328;28;20042;-74
2022/05/25 15:21:21;;;;;;;5.30;0.93;;;;;;;;;;4995714;28;20046;-74
2022/05/25 15:24:00;;;;;;;6.50;1.13;;;;;;;;;;4986325;28;20488;-75
2022/05/25 15:26:31;;;;;;;5.97;1.10;;;;;;;;;;5020981;28;20132;-74
2022/05/25 15:29:31;;;;;;;5.85;1.20;;;;;;;;;;5035590;28;20067;-74